This is the latest recevied weather packets stored in our database for station/object SR7U-1. If no packets are shown the sender has not sent any weather packets the latest 10 day(s).
| Time | Temp. | Humidity | Pressure | Rain* | Wind** | Luminosity | Snow |
|---|---|---|---|---|---|---|---|
| 1777418241 | 3.33° C | 58% | 1023.4 hPa | - | - | - | - |
| 1777417365 | 3.33° C | 59% | 1023.4 hPa | - | - | - | - |
| 1777416630 | 3.33° C | 58% | 1023.4 hPa | - | - | - | - |
| 1777415850 | 1.67° C | 64% | 1023.4 hPa | - | - | - | - |
| 1777415110 | 1.67° C | 67% | 1023.2 hPa | - | - | - | - |
| 1777414275 | 3.33° C | 58% | 1023.2 hPa | - | - | - | - |
| 1777413485 | 2.22° C | 55% | 1023.2 hPa | - | - | - | - |
| 1777412745 | 1.11° C | 63% | 1023.2 hPa | - | - | - | - |
| 1777411938 | 2.78° C | 56% | 1023.1 hPa | - | - | - | - |
| 1777411084 | 1.67° C | 62% | 1023.2 hPa | - | - | - | - |
| 1777410245 | 2.78° C | 55% | 1023.2 hPa | - | - | - | - |
| 1777409505 | 1.11° C | 64% | 1023.2 hPa | - | - | - | - |
| 1777408673 | 2.78° C | 55% | 1023.1 hPa | - | - | - | - |
| 1777407821 | 1.67° C | 59% | 1023.2 hPa | - | - | - | - |
| 1777407070 | 3.89° C | 52% | 1023.1 hPa | - | - | - | - |
| 1777406320 | 3.89° C | 52% | 1023.2 hPa | - | - | - | - |
| 1777405535 | 3.89° C | 51% | 1023.1 hPa | - | - | - | - |
| 1777404750 | 3.89° C | 51% | 1023.1 hPa | - | - | - | - |
| 1777403978 | 4.44° C | 51% | 1023.1 hPa | - | - | - | - |
| 1777403215 | 5° C | 47% | 1023.2 hPa | - | - | - | - |
| 1777402370 | 5.56° C | 45% | 1023.1 hPa | - | - | - | - |
| 1777401555 | 6.11° C | 44% | 1023.1 hPa | - | - | - | - |
| 1777400770 | 6.11° C | 44% | 1022.9 hPa | - | - | - | - |
| 1777400007 | 7.22° C | 40% | 1022.9 hPa | - | - | - | - |
| 1777399212 | 7.78° C | 38% | 1022.8 hPa | - | - | - | - |
* Rain since midnight (hover to see other rain measurements)
** Current wind speed in m/s (hover to see current wind gust speed)